createdAt,value
2019-04-06T00:00:26.138Z,8.40
2019-04-06T00:02:55.246Z,8.40
2019-04-06T00:05:24.371Z,8.30
2019-04-06T00:07:53.471Z,8.30
2019-04-06T00:10:22.563Z,8.30
2019-04-06T00:12:51.663Z,8.30
2019-04-06T00:15:20.818Z,8.40
2019-04-06T00:17:49.949Z,8.30
2019-04-06T00:20:19.065Z,8.30
2019-04-06T00:22:48.470Z,8.30
2019-04-06T00:25:17.603Z,8.30
2019-04-06T00:27:46.650Z,8.30
2019-04-06T00:30:16.123Z,8.30
2019-04-06T00:32:58.404Z,8.30
2019-04-06T00:35:27.441Z,8.30
2019-04-06T00:37:56.643Z,8.30
2019-04-06T00:40:25.895Z,8.30
2019-04-06T00:42:54.939Z,8.30
2019-04-06T00:45:24.407Z,8.20
2019-04-06T00:47:53.518Z,8.20
2019-04-06T00:50:23.047Z,8.20
2019-04-06T00:52:52.227Z,8.20
2019-04-06T00:55:21.355Z,8.20
2019-04-06T00:57:50.392Z,8.20
2019-04-06T01:00:19.840Z,8.20
2019-04-06T01:02:49.028Z,8.20
2019-04-06T01:05:18.132Z,8.20
2019-04-06T01:07:47.756Z,8.20
2019-04-06T01:10:16.932Z,8.20
2019-04-06T01:12:46.148Z,8.10
2019-04-06T01:15:15.456Z,8.10
2019-04-06T01:17:44.665Z,8.20
2019-04-06T01:20:13.921Z,8.20
2019-04-06T01:22:43.152Z,8.20
2019-04-06T01:25:12.332Z,8.10
2019-04-06T01:27:41.516Z,8.10
2019-04-06T01:30:11.396Z,8.20
2019-04-06T01:32:40.568Z,8.20
2019-04-06T01:35:09.780Z,8.20
2019-04-06T01:37:38.965Z,8.20
2019-04-06T01:40:08.167Z,8.10
2019-04-06T01:42:37.188Z,8.20
2019-04-06T01:45:06.446Z,8.20
2019-04-06T01:47:35.560Z,8.20
2019-04-06T01:50:04.744Z,8.20
2019-04-06T01:52:33.804Z,8.20
2019-04-06T01:55:03.236Z,8.20
2019-04-06T01:57:32.367Z,8.20
2019-04-06T02:00:01.645Z,8.20
2019-04-06T02:02:35.919Z,8.20
2019-04-06T02:05:05.949Z,8.20
2019-04-06T02:07:35.142Z,8.30
2019-04-06T02:10:04.662Z,8.30
2019-04-06T02:12:33.818Z,8.20
2019-04-06T02:15:03.111Z,8.20
2019-04-06T02:17:32.159Z,8.20
2019-04-06T02:20:01.230Z,8.30
2019-04-06T02:22:30.630Z,8.30
2019-04-06T02:24:59.651Z,8.20
2019-04-06T02:27:28.731Z,8.30
2019-04-06T02:30:34.955Z,8.30
2019-04-06T02:33:14.234Z,8.30
2019-04-06T02:35:51.875Z,8.30
2019-04-06T02:38:36.601Z,8.30
2019-04-06T02:41:14.325Z,8.30
2019-04-06T02:43:43.392Z,8.30
2019-04-06T02:46:12.621Z,8.30
2019-04-06T02:48:41.847Z,8.30
2019-04-06T02:51:10.920Z,8.30
2019-04-06T02:53:40.016Z,8.30
2019-04-06T02:56:09.311Z,8.30
2019-04-06T02:58:38.348Z,8.30
2019-04-06T03:01:07.548Z,8.30
2019-04-06T03:03:36.627Z,8.20
2019-04-06T03:06:05.804Z,8.20
2019-04-06T03:08:35.231Z,8.30
2019-04-06T03:11:04.473Z,8.20
2019-04-06T03:13:33.640Z,8.20
2019-04-06T03:16:03.183Z,8.20
2019-04-06T03:18:32.360Z,8.20
2019-04-06T03:21:01.745Z,8.30
2019-04-06T03:23:31.084Z,8.20
2019-04-06T03:26:00.269Z,8.30
2019-04-06T03:28:29.582Z,8.40
2019-04-06T03:30:59.010Z,8.40
2019-04-06T03:33:28.351Z,8.40
2019-04-06T03:35:57.763Z,8.40
2019-04-06T03:38:27.064Z,8.40
2019-04-06T03:40:56.356Z,8.40
2019-04-06T03:43:25.629Z,8.30
2019-04-06T03:45:54.661Z,8.30
2019-04-06T03:48:23.684Z,8.40
2019-04-06T03:50:52.816Z,8.40
2019-04-06T03:53:21.971Z,8.30
2019-04-06T03:55:51.196Z,8.30
2019-04-06T03:58:20.488Z,8.30
2019-04-06T04:00:49.476Z,8.30
2019-04-06T04:03:18.351Z,8.30
2019-04-06T04:05:47.380Z,8.30
2019-04-06T04:08:16.553Z,8.40
2019-04-06T04:10:47.360Z,8.40
2019-04-06T04:13:16.642Z,8.50
2019-04-06T04:15:45.792Z,8.50
2019-04-06T04:18:14.967Z,8.50
2019-04-06T04:20:44.114Z,8.50
2019-04-06T04:23:13.139Z,8.60
2019-04-06T04:25:42.125Z,8.60
2019-04-06T04:28:11.176Z,8.60
2019-04-06T04:30:40.444Z,8.60
2019-04-06T04:33:09.417Z,8.60
2019-04-06T04:35:38.486Z,8.60
2019-04-06T04:38:07.439Z,8.60
2019-04-06T04:40:37.235Z,8.60
2019-04-06T04:43:06.274Z,8.60
2019-04-06T04:45:35.650Z,8.60
2019-04-06T04:48:04.764Z,8.60
2019-04-06T04:50:33.773Z,8.60
2019-04-06T04:53:02.708Z,8.60
2019-04-06T04:55:31.668Z,8.60
2019-04-06T04:58:01.283Z,8.60
2019-04-06T05:00:30.237Z,8.60
2019-04-06T05:02:59.312Z,8.70
2019-04-06T05:05:28.284Z,8.70
2019-04-06T05:07:57.216Z,8.70
2019-04-06T05:10:26.132Z,8.70
2019-04-06T05:12:55.026Z,8.70
2019-04-06T05:15:52.680Z,8.60
2019-04-06T05:18:21.653Z,8.60
2019-04-06T05:20:50.665Z,8.60
2019-04-06T05:23:19.862Z,8.60
2019-04-06T05:25:48.917Z,8.60
2019-04-06T05:28:17.808Z,8.60
2019-04-06T05:30:46.965Z,8.60
2019-04-06T05:33:16.129Z,8.50
2019-04-06T05:35:45.182Z,8.50
2019-04-06T05:38:14.099Z,8.50
2019-04-06T05:40:43.240Z,8.60
2019-04-06T05:43:12.261Z,8.70
2019-04-06T05:45:41.141Z,8.70
2019-04-06T05:48:10.093Z,8.80
2019-04-06T05:50:39.157Z,8.80
2019-04-06T05:53:08.213Z,8.90
2019-04-06T05:55:37.350Z,8.90
2019-04-06T05:58:09.869Z,8.90
2019-04-06T06:00:40.144Z,9.00
2019-04-06T06:03:10.176Z,9.00
2019-04-06T06:05:40.974Z,9.00
2019-04-06T06:08:10.302Z,9.00
2019-04-06T06:10:39.313Z,9.10
2019-04-06T06:13:08.353Z,9.10
2019-04-06T06:15:37.361Z,9.10
2019-04-06T06:18:06.462Z,9.20
2019-04-06T06:20:35.673Z,9.30
2019-04-06T06:23:05.181Z,9.30
2019-04-06T06:25:34.184Z,9.30
2019-04-06T06:28:13.874Z,9.30
2019-04-06T06:30:34.121Z,9.30
2019-04-06T06:33:03.499Z,9.40
2019-04-06T06:35:32.526Z,9.50
2019-04-06T06:38:01.585Z,9.50
2019-04-06T06:40:30.686Z,9.50
2019-04-06T06:42:59.575Z,9.60
2019-04-06T06:45:28.634Z,9.60
2019-04-06T06:47:57.670Z,9.60
2019-04-06T06:50:26.734Z,9.70
2019-04-06T06:52:55.703Z,9.70
2019-04-06T06:55:26.634Z,9.70
2019-04-06T06:57:55.369Z,9.70
2019-04-06T07:00:24.805Z,9.80
2019-04-06T07:02:53.866Z,9.90
2019-04-06T07:05:22.942Z,9.90
2019-04-06T07:07:51.906Z,9.90
2019-04-06T07:10:20.974Z,10.00
2019-04-06T07:12:49.903Z,10.10
2019-04-06T07:15:19.263Z,10.10
2019-04-06T07:17:48.366Z,10.10
2019-04-06T07:20:17.411Z,10.10
2019-04-06T07:22:46.593Z,10.20
2019-04-06T07:25:15.806Z,10.20
2019-04-06T07:27:44.903Z,10.20
2019-04-06T07:30:14.249Z,10.20
2019-04-06T07:32:43.248Z,10.30
2019-04-06T07:35:12.354Z,10.30
2019-04-06T07:37:41.550Z,10.30
2019-04-06T07:40:11.562Z,10.30
2019-04-06T07:42:40.625Z,10.30
2019-04-06T07:45:10.504Z,10.20
2019-04-06T07:47:41.577Z,10.30
2019-04-06T07:50:11.090Z,10.30
2019-04-06T07:52:40.051Z,10.30
2019-04-06T07:55:09.111Z,10.30
2019-04-06T07:57:38.715Z,10.30
2019-04-06T08:00:08.731Z,10.30
2019-04-06T08:02:37.810Z,10.30
2019-04-06T08:05:07.156Z,10.40
2019-04-06T08:07:36.259Z,10.40
2019-04-06T08:10:06.059Z,10.40
2019-04-06T08:12:35.095Z,10.40
2019-04-06T08:15:04.672Z,10.40
2019-04-06T08:17:33.695Z,10.50
2019-04-06T08:20:02.931Z,10.50
2019-04-06T08:22:31.983Z,10.50
2019-04-06T08:25:00.991Z,10.50
2019-04-06T08:27:30.279Z,10.60
2019-04-06T08:29:59.324Z,10.60
2019-04-06T08:32:28.335Z,10.60
2019-04-06T08:35:24.758Z,10.60
2019-04-06T08:37:45.366Z,10.70
2019-04-06T08:40:14.752Z,10.70
2019-04-06T08:42:43.710Z,10.70
2019-04-06T08:45:14.128Z,10.80
2019-04-06T08:47:43.667Z,10.80
2019-04-06T08:50:12.928Z,10.90
2019-04-06T08:52:42.058Z,10.90
2019-04-06T08:55:11.411Z,11.00
2019-04-06T08:57:40.448Z,11.10
2019-04-06T09:00:10.052Z,11.10
2019-04-06T09:02:39.759Z,11.10
2019-04-06T09:05:09.096Z,11.30
2019-04-06T09:07:40.593Z,11.40
2019-04-06T09:10:09.264Z,11.40
2019-04-06T09:12:38.360Z,11.40
2019-04-06T09:15:07.840Z,11.40
2019-04-06T09:17:37.082Z,11.60
2019-04-06T09:20:07.029Z,11.70
2019-04-06T09:22:36.344Z,11.90
2019-04-06T09:25:05.824Z,12.00
2019-04-06T09:27:35.240Z,12.10
2019-04-06T09:30:06.113Z,12.20
2019-04-06T09:32:35.620Z,12.30
2019-04-06T09:35:05.620Z,12.50
2019-04-06T09:37:35.047Z,12.70
2019-04-06T09:40:04.846Z,13.00
2019-04-06T09:42:34.337Z,13.30
2019-04-06T09:45:21.197Z,13.40
2019-04-06T09:48:12.424Z,13.70
2019-04-06T09:50:56.305Z,14.10
2019-04-06T09:53:35.291Z,14.70
2019-04-06T09:56:14.288Z,15.00
2019-04-06T09:59:03.378Z,14.90
2019-04-06T10:01:50.065Z,15.00
2019-04-06T10:04:41.261Z,15.10
2019-04-06T10:07:37.665Z,15.10
2019-04-06T10:10:26.442Z,15.10
2019-04-06T10:13:33.236Z,15.00
2019-04-06T10:16:21.690Z,14.90
2019-04-06T10:19:21.192Z,15.00
2019-04-06T10:22:00.756Z,15.40
2019-04-06T10:24:52.218Z,15.40
2019-04-06T10:27:43.424Z,14.90
2019-04-06T10:30:39.650Z,15.40
2019-04-06T10:33:15.355Z,15.80
2019-04-06T10:36:15.817Z,15.80
2019-04-06T10:39:05.601Z,16.00
2019-04-06T10:41:52.430Z,15.90
2019-04-06T10:44:50.036Z,15.80
2019-04-06T10:47:47.603Z,15.90
2019-04-06T10:50:33.594Z,16.10
2019-04-06T10:53:20.730Z,16.20
2019-04-06T10:56:24.249Z,16.10
2019-04-06T10:59:11.806Z,15.90
2019-04-06T11:01:52.927Z,15.90
2019-04-06T11:04:26.261Z,15.80
2019-04-06T11:07:20.710Z,16.30
2019-04-06T11:10:08.814Z,16.40
2019-04-06T11:12:59.698Z,16.20
2019-04-06T11:15:41.478Z,15.90
2019-04-06T11:18:28.307Z,16.20
2019-04-06T11:21:13.431Z,16.20
2019-04-06T11:24:02.617Z,15.80
2019-04-06T11:26:51.269Z,15.60
2019-04-06T11:29:45.514Z,15.60
2019-04-06T11:32:30.835Z,15.30
2019-04-06T11:35:22.094Z,15.70
2019-04-06T11:38:22.326Z,15.90
2019-04-06T11:41:09.371Z,16.00
2019-04-06T11:43:53.235Z,16.20
2019-04-06T11:46:27.630Z,16.80
2019-04-06T11:52:14.430Z,17.30
2019-04-06T11:54:59.079Z,17.90
2019-04-06T11:57:40.139Z,17.80
2019-04-06T12:00:33.177Z,17.40
2019-04-06T12:03:24.504Z,17.60
2019-04-06T12:06:22.864Z,17.40
2019-04-06T12:09:06.639Z,17.40
2019-04-06T12:11:52.001Z,17.40
2019-04-06T12:14:42.310Z,17.50
2019-04-06T12:17:36.573Z,17.40
2019-04-06T12:20:25.010Z,17.30
2019-04-06T12:23:12.011Z,17.30
2019-04-06T12:26:09.448Z,17.10
2019-04-06T12:28:47.715Z,17.00
2019-04-06T12:31:39.126Z,17.00
2019-04-06T12:34:24.723Z,17.20
2019-04-06T12:37:11.329Z,17.60
2019-04-06T12:39:53.453Z,18.00
2019-04-06T12:42:35.588Z,18.30
2019-04-06T12:45:32.966Z,18.30
2019-04-06T12:48:20.988Z,18.10
2019-04-06T12:51:15.016Z,18.00
2019-04-06T12:53:56.457Z,17.80
2019-04-06T12:56:43.354Z,17.70
2019-04-06T12:59:38.099Z,17.50
2019-04-06T13:02:26.377Z,18.00
2019-04-06T13:05:12.482Z,17.80
2019-04-06T13:07:58.332Z,17.80
2019-04-06T13:10:45.480Z,17.80
2019-04-06T13:13:20.265Z,17.70
2019-04-06T13:16:26.736Z,17.70
2019-04-06T13:19:10.880Z,17.40
2019-04-06T13:21:57.696Z,17.20
2019-04-06T13:24:52.116Z,17.10
2019-04-06T13:27:58.776Z,17.10
2019-04-06T13:30:34.752Z,17.00
2019-04-06T13:33:11.272Z,17.00
2019-04-06T13:35:58.346Z,17.00
2019-04-06T13:38:46.727Z,17.00
2019-04-06T13:41:41.324Z,17.10
2019-04-06T13:44:24.253Z,17.20
2019-04-06T13:47:05.785Z,17.30
2019-04-06T13:49:45.797Z,17.70
2019-04-06T13:52:29.695Z,18.10
2019-04-06T13:55:21.091Z,18.10
2019-04-06T13:57:57.770Z,18.10
2019-04-06T14:00:44.553Z,18.10
2019-04-06T14:04:04.901Z,18.00
2019-04-06T14:07:07.365Z,18.00
2019-04-06T14:09:58.425Z,18.00
2019-04-06T14:12:52.861Z,18.00
2019-04-06T14:15:39.486Z,18.20
2019-04-06T14:18:26.026Z,18.40
2019-04-06T14:21:12.991Z,18.50
2019-04-06T14:23:52.715Z,18.20
2019-04-06T14:26:53.152Z,18.40
2019-04-06T14:29:29.482Z,18.30
2019-04-06T14:32:12.186Z,18.30
2019-04-06T14:34:56.302Z,18.30
2019-04-06T14:37:59.823Z,18.20
2019-04-06T14:40:50.742Z,18.20
2019-04-06T14:43:47.738Z,18.40
2019-04-06T14:46:35.474Z,18.20
2019-04-06T14:49:31.269Z,18.10
2019-04-06T14:52:12.262Z,18.30
2019-04-06T14:55:03.648Z,18.60
2019-04-06T14:57:57.905Z,18.80
2019-04-06T15:01:01.058Z,18.60
2019-04-06T15:03:58.199Z,18.70
2019-04-06T15:06:45.198Z,18.80
2019-04-06T15:09:30.045Z,18.70
2019-04-06T15:12:14.801Z,18.60
2019-04-06T15:15:06.267Z,18.50
2019-04-06T15:17:56.858Z,18.60
2019-04-06T15:21:00.607Z,18.60
2019-04-06T15:23:40.932Z,18.70
2019-04-06T15:26:41.297Z,18.80
2019-04-06T15:29:21.423Z,18.60
2019-04-06T15:32:15.675Z,18.50
2019-04-06T15:35:04.069Z,18.50
2019-04-06T15:37:55.063Z,18.70
2019-04-06T15:40:41.877Z,18.90
2019-04-06T15:43:27.321Z,19.00
2019-04-06T15:46:21.187Z,19.10
2019-04-06T15:49:08.291Z,19.20
2019-04-06T15:51:48.783Z,19.20
2019-04-06T15:54:39.944Z,19.30
2019-04-06T15:57:20.219Z,19.20
2019-04-06T16:00:04.550Z,19.20
2019-04-06T16:02:55.584Z,19.10
2019-04-06T16:05:33.164Z,18.90
2019-04-06T16:08:12.183Z,18.90
2019-04-06T16:10:51.295Z,18.90
2019-04-06T16:13:54.654Z,18.90
2019-04-06T16:16:44.916Z,18.90
2019-04-06T16:19:32.064Z,18.90
2019-04-06T16:22:18.748Z,18.90
2019-04-06T16:25:34.956Z,18.90
2019-04-06T16:29:12.196Z,18.90
2019-04-06T16:31:47.973Z,18.90
2019-04-06T16:34:45.762Z,18.90
2019-04-06T16:37:39.645Z,18.90
2019-04-06T16:40:27.765Z,18.80
2019-04-06T16:43:04.015Z,18.70
2019-04-06T16:45:59.064Z,18.70
2019-04-06T16:48:45.932Z,18.70
2019-04-06T16:51:37.397Z,18.70
2019-04-06T16:54:34.959Z,18.70
2019-04-06T16:57:22.801Z,18.60
2019-04-06T17:00:18.463Z,18.50
2019-04-06T17:03:03.092Z,18.40
2019-04-06T17:05:43.381Z,18.30
2019-04-06T17:08:34.493Z,18.20
2019-04-06T17:11:33.786Z,18.20
2019-04-06T17:14:19.277Z,18.10
2019-04-06T17:17:06.329Z,18.00
2019-04-06T17:19:53.854Z,18.00
2019-04-06T17:22:47.746Z,18.00
2019-04-06T17:25:24.806Z,17.90
2019-04-06T17:28:03.103Z,17.80
2019-04-06T17:30:51.157Z,17.70
2019-04-06T17:33:45.026Z,17.70
2019-04-06T17:36:24.455Z,17.60
2019-04-06T17:39:15.670Z,17.60
2019-04-06T17:42:10.094Z,17.50
2019-04-06T17:44:57.092Z,17.40
2019-04-06T17:47:35.466Z,17.40
2019-04-06T17:50:42.247Z,17.30
2019-04-06T17:53:36.138Z,17.20
2019-04-06T17:56:42.511Z,17.10
2019-04-06T17:59:39.579Z,16.90
2019-04-06T18:02:26.239Z,16.80
2019-04-06T18:05:01.591Z,16.80
2019-04-06T18:07:55.695Z,16.70
2019-04-06T18:10:56.279Z,16.50
2019-04-06T18:13:52.190Z,16.40
2019-04-06T18:16:49.779Z,16.30
2019-04-06T18:19:18.659Z,16.20
2019-04-06T18:21:48.133Z,16.10
2019-04-06T18:24:17.207Z,16.10
2019-04-06T18:27:27.519Z,16.10
2019-04-06T18:29:56.735Z,16.00
2019-04-06T18:32:40.588Z,16.00
2019-04-06T18:35:37.355Z,15.90
2019-04-06T18:38:25.539Z,15.90
2019-04-06T18:40:54.641Z,15.80
2019-04-06T18:43:24.271Z,15.80
2019-04-06T18:45:53.468Z,15.70
2019-04-06T18:48:22.577Z,15.70
2019-04-06T18:50:51.940Z,15.60
2019-04-06T18:53:21.028Z,15.60
2019-04-06T18:55:50.058Z,15.60
2019-04-06T18:59:23.236Z,15.50
2019-04-06T19:01:52.359Z,15.50
2019-04-06T19:04:21.487Z,15.40
2019-04-06T19:09:38.739Z,15.50
2019-04-06T19:12:40.811Z,15.60
2019-04-06T19:15:10.691Z,15.60
2019-04-06T19:17:39.831Z,15.60
2019-04-06T19:20:10.457Z,15.60
2019-04-06T19:22:41.299Z,15.50
2019-04-06T19:25:10.500Z,15.50
2019-04-06T19:27:39.442Z,15.40
2019-04-06T19:30:10.069Z,15.40
2019-04-06T19:32:39.299Z,15.30
2019-04-06T19:35:08.956Z,15.20
2019-04-06T19:37:38.532Z,15.20
2019-04-06T19:40:08.384Z,15.10
2019-04-06T19:42:37.490Z,15.00
2019-04-06T19:45:07.548Z,15.00
2019-04-06T19:47:37.052Z,15.00
2019-04-06T19:50:07.567Z,15.00
2019-04-06T19:52:36.648Z,14.90
2019-04-06T19:55:08.989Z,14.90
2019-04-06T19:57:38.303Z,14.90
2019-04-06T20:00:08.487Z,14.80
2019-04-06T20:02:37.999Z,14.70
2019-04-06T20:05:08.382Z,14.70
2019-04-06T20:07:38.083Z,14.60
2019-04-06T20:10:08.715Z,14.50
2019-04-06T20:12:37.760Z,14.50
2019-04-06T20:15:07.968Z,14.40
2019-04-06T20:17:37.406Z,14.30
2019-04-06T20:20:06.810Z,14.30
2019-04-06T20:25:37.431Z,14.10
2019-04-06T20:28:06.681Z,14.00
2019-04-06T20:30:35.788Z,14.00
2019-04-06T20:33:05.041Z,13.90
2019-04-06T20:35:34.272Z,13.80
2019-04-06T20:38:03.236Z,13.80
2019-04-06T20:40:32.408Z,13.70
2019-04-06T20:43:36.757Z,13.70
2019-04-06T20:46:05.828Z,13.70
2019-04-06T20:48:35.052Z,13.60
2019-04-06T20:51:22.575Z,13.50
2019-04-06T20:53:52.092Z,13.40
2019-04-06T20:56:21.045Z,13.40
2019-04-06T20:58:50.109Z,13.30
2019-04-06T21:01:19.132Z,13.30
2019-04-06T21:03:59.211Z,13.20
2019-04-06T21:06:19.132Z,13.20
2019-04-06T21:08:48.172Z,13.10
2019-04-06T21:11:17.416Z,13.10
2019-04-06T21:13:46.969Z,13.00
2019-04-06T21:16:16.013Z,13.00
2019-04-06T21:18:44.893Z,12.90
2019-04-06T21:21:14.380Z,12.90
2019-04-06T21:23:44.075Z,12.90
2019-04-06T21:26:13.513Z,12.80
2019-04-06T21:28:42.448Z,12.80
2019-04-06T21:31:12.161Z,12.80
2019-04-06T21:33:41.629Z,12.80
2019-04-06T21:36:10.690Z,12.70
2019-04-06T21:38:40.075Z,12.70
2019-04-06T21:41:09.046Z,12.70
2019-04-06T21:43:38.083Z,12.70
2019-04-06T21:46:07.730Z,12.60
2019-04-06T21:48:36.845Z,12.60
2019-04-06T21:51:06.574Z,12.60
2019-04-06T21:53:35.825Z,12.50
2019-04-06T21:56:07.576Z,12.50
2019-04-06T21:58:36.365Z,12.40
2019-04-06T22:01:07.071Z,12.40
2019-04-06T22:03:36.536Z,12.30
2019-04-06T22:06:05.723Z,12.30
2019-04-06T22:08:35.473Z,12.30
2019-04-06T22:11:06.110Z,12.20
2019-04-06T22:13:35.438Z,12.10
2019-04-06T22:16:04.963Z,12.00
2019-04-06T22:18:34.062Z,12.00
2019-04-06T22:21:03.122Z,11.90
2019-04-06T22:23:41.032Z,11.80
2019-04-06T22:26:02.818Z,11.70
2019-04-06T22:28:32.253Z,11.70
2019-04-06T22:31:01.807Z,11.70
2019-04-06T22:33:30.898Z,11.70
2019-04-06T22:35:59.934Z,11.70
2019-04-06T22:38:29.154Z,11.70
2019-04-06T22:40:58.582Z,11.70
2019-04-06T22:43:27.502Z,11.60
2019-04-06T22:45:56.494Z,11.70
2019-04-06T22:48:25.480Z,11.70
2019-04-06T22:50:54.499Z,11.60
2019-04-06T22:53:35.987Z,11.60
2019-04-06T22:56:05.509Z,11.60
2019-04-06T22:58:34.593Z,11.50
2019-04-06T23:01:09.750Z,11.50
2019-04-06T23:04:13.385Z,11.50
2019-04-06T23:06:46.064Z,11.50
2019-04-06T23:09:15.339Z,11.50
2019-04-06T23:11:44.740Z,11.50
2019-04-06T23:14:13.807Z,11.50
2019-04-06T23:16:42.775Z,11.50
2019-04-06T23:19:12.130Z,11.40
2019-04-06T23:21:41.487Z,11.40
2019-04-06T23:24:10.976Z,11.40
2019-04-06T23:26:41.030Z,11.50
2019-04-06T23:29:10.497Z,11.50
2019-04-06T23:31:40.037Z,11.30
2019-04-06T23:34:09.007Z,11.30
2019-04-06T23:36:37.995Z,11.20
2019-04-06T23:39:08.047Z,11.30
2019-04-06T23:41:37.838Z,11.20
2019-04-06T23:44:07.035Z,11.20
2019-04-06T23:46:35.908Z,11.10
2019-04-06T23:49:26.193Z,11.20
2019-04-06T23:51:49.372Z,11.20
2019-04-06T23:54:18.348Z,11.10
2019-04-06T23:56:47.562Z,11.10
2019-04-06T23:59:16.517Z,11.20
